Time,TemperatureF,DewpointF,PressureIn,WindDirection,WindDirectionDegrees,WindSpeedMPH,WindSpeedGustMPH,Humidity,HourlyPrecipIn,Conditions,Clouds,dailyrainin,SoftwareType,DateUTC
2013-05-16 00:00:00,51.5,51.0,30.33,East,83,3.3,3.3,98,0.00,,,0.00,TxWx,2013-05-16 04:00:00,
2013-05-16 00:33:00,50.9,51.0,30.34,East,83,4.8,5.7,100,0.00,,,0.00,TxWx,2013-05-16 04:33:00,
2013-05-16 00:38:00,50.9,51.0,30.34,East,83,2.7,2.7,100,0.00,,,0.00,TxWx,2013-05-16 04:38:00,
2013-05-16 00:43:00,50.9,51.0,30.34,East,83,2.1,2.1,100,0.00,,,0.00,TxWx,2013-05-16 04:43:00,
2013-05-16 00:49:00,50.8,51.0,30.34,East,83,2.1,2.4,100,0.00,,,0.00,TxWx,2013-05-16 04:49:00,
2013-05-16 00:54:00,50.8,51.0,30.34,East,82,0.3,0.6,100,0.00,,,0.00,TxWx,2013-05-16 04:54:00,
2013-05-16 00:59:00,50.6,51.0,30.34,East,83,0.9,1.2,100,0.00,,,0.00,TxWx,2013-05-16 04:59:00,
2013-05-16 01:04:00,50.2,50.0,30.34,East,83,1.5,1.5,100,0.00,,,0.00,TxWx,2013-05-16 05:04:00,
2013-05-16 01:09:00,50.0,50.0,30.34,East,83,1.2,1.2,100,0.00,,,0.00,TxWx,2013-05-16 05:09:00,
2013-05-16 01:14:00,49.9,50.0,30.34,East,82,0.3,0.6,100,0.00,,,0.00,TxWx,2013-05-16 05:14:00,
2013-05-16 01:20:00,49.6,50.0,30.33,East,82,1.2,1.2,100,0.00,,,0.00,TxWx,2013-05-16 05:20:00,
2013-05-16 01:25:00,49.5,50.0,30.33,East,82,1.2,1.2,100,0.00,,,0.00,TxWx,2013-05-16 05:25:00,
2013-05-16 01:30:00,49.4,49.0,30.33,East,82,1.2,1.2,100,0.00,,,0.00,TxWx,2013-05-16 05:30:00,
2013-05-16 01:35:00,49.3,49.0,30.33,East,82,1.2,1.5,100,0.00,,,0.00,TxWx,2013-05-16 05:35:00,
2013-05-16 01:40:00,49.1,49.0,30.33,East,82,0.9,0.9,100,0.00,,,0.00,TxWx,2013-05-16 05:40:00,
2013-05-16 01:45:00,49.1,49.0,30.33,East,82,0.3,0.6,100,0.00,,,0.00,TxWx,2013-05-16 05:45:00,
2013-05-16 01:50:00,48.4,48.0,30.33,East,81,1.8,1.8,100,0.00,,,0.00,TxWx,2013-05-16 05:50:00,
2013-05-16 01:56:00,48.3,48.0,30.33,East,82,0.6,0.6,100,0.00,,,0.00,TxWx,2013-05-16 05:56:00,
2013-05-16 02:01:00,48.3,48.0,30.33,East,82,0.0,0.0,100,0.00,,,0.00,TxWx,2013-05-16 06:01:00,
2013-05-16 02:06:00,48.3,48.0,30.33,East,83,0.0,0.0,100,0.00,,,0.00,TxWx,2013-05-16 06:06:00,
2013-05-16 02:11:00,48.1,48.0,30.33,East,82,1.5,1.5,100,0.00,,,0.00,TxWx,2013-05-16 06:11:00,
2013-05-16 02:16:00,48.2,48.0,30.33,East,82,0.9,1.2,100,0.00,,,0.00,TxWx,2013-05-16 06:16:00,
2013-05-16 02:21:00,48.3,48.0,30.32,East,82,0.0,0.0,100,0.00,,,0.00,TxWx,2013-05-16 06:21:00,
2013-05-16 02:26:00,48.1,48.0,30.32,East,82,0.0,0.0,100,0.00,,,0.00,TxWx,2013-05-16 06:26:00,
2013-05-16 02:32:00,48.0,48.0,30.32,East,82,0.0,0.0,100,0.00,,,0.00,TxWx,2013-05-16 06:32:00,
2013-05-16 02:37:00,47.7,48.0,30.32,East,82,0.6,0.9,100,0.00,,,0.00,TxWx,2013-05-16 06:37:00,
2013-05-16 02:42:00,47.4,47.0,30.32,East,82,1.2,1.5,100,0.00,,,0.00,TxWx,2013-05-16 06:42:00,
2013-05-16 02:47:00,47.4,47.0,30.32,East,83,1.8,2.1,100,0.00,,,0.00,TxWx,2013-05-16 06:47:00,
2013-05-16 02:52:00,47.3,47.0,30.32,East,82,0.0,0.3,100,0.00,,,0.00,TxWx,2013-05-16 06:52:00,
2013-05-16 02:57:00,47.0,47.0,30.32,East,82,0.9,1.2,100,0.00,,,0.00,TxWx,2013-05-16 06:57:00,
2013-05-16 03:02:00,46.7,47.0,30.33,East,83,0.3,0.3,100,0.00,,,0.00,TxWx,2013-05-16 07:02:00,
2013-05-16 03:07:00,46.5,46.0,30.32,East,82,0.0,0.3,100,0.00,,,0.00,TxWx,2013-05-16 07:07:00,
2013-05-16 03:13:00,46.4,46.0,30.33,East,83,0.3,0.3,100,0.00,,,0.00,TxWx,2013-05-16 07:13:00,
2013-05-16 03:18:00,46.7,47.0,30.33,East,83,4.8,4.8,100,0.00,,,0.00,TxWx,2013-05-16 07:18:00,
2013-05-16 03:23:00,47.2,47.0,30.33,East,84,2.7,3.0,100,0.00,,,0.00,TxWx,2013-05-16 07:23:00,
2013-05-16 03:28:00,47.4,47.0,30.33,East,82,1.5,1.5,100,0.00,,,0.00,TxWx,2013-05-16 07:28:00,
2013-05-16 03:34:00,47.3,47.0,30.33,East,82,0.0,0.0,100,0.00,,,0.00,TxWx,2013-05-16 07:34:00,
2013-05-16 03:39:00,46.9,47.0,30.33,East,83,1.2,1.2,100,0.00,,,0.00,TxWx,2013-05-16 07:39:00,
2013-05-16 03:44:00,46.8,47.0,30.33,East,83,1.8,2.1,100,0.00,,,0.00,TxWx,2013-05-16 07:44:00,
2013-05-16 03:49:00,46.3,46.0,30.33,East,83,2.1,2.4,100,0.00,,,0.00,TxWx,2013-05-16 07:49:00,
2013-05-16 03:55:00,46.1,46.0,30.33,East,82,1.2,1.2,100,0.00,,,0.00,TxWx,2013-05-16 07:55:00,
2013-05-16 04:00:00,46.1,46.0,30.33,East,85,0.9,0.9,100,0.00,,,0.00,TxWx,2013-05-16 08:00:00,
2013-05-16 04:05:00,45.7,46.0,30.33,East,83,2.1,2.1,100,0.00,,,0.00,TxWx,2013-05-16 08:05:00,
2013-05-16 04:10:00,45.7,46.0,30.33,East,83,0.6,0.6,100,0.00,,,0.00,TxWx,2013-05-16 08:10:00,
2013-05-16 04:15:00,45.2,45.0,30.33,East,82,0.9,0.9,100,0.00,,,0.00,TxWx,2013-05-16 08:15:00,
2013-05-16 04:20:00,45.0,45.0,30.33,East,82,0.0,0.0,100,0.00,,,0.00,TxWx,2013-05-16 08:20:00,
2013-05-16 04:25:00,44.8,45.0,30.32,East,83,0.0,0.0,100,0.00,,,0.00,TxWx,2013-05-16 08:25:00,
2013-05-16 04:31:00,44.8,45.0,30.32,East,84,0.9,0.9,100,0.00,,,0.00,TxWx,2013-05-16 08:31:00,
2013-05-16 04:36:00,44.8,45.0,30.32,East,84,0.0,0.0,100,0.00,,,0.00,TxWx,2013-05-16 08:36:00,
2013-05-16 04:41:00,44.8,45.0,30.32,East,84,0.0,0.0,100,0.00,,,0.00,TxWx,2013-05-16 08:41:00,
2013-05-16 04:46:00,44.7,45.0,30.32,East,83,0.3,0.6,100,0.00,,,0.00,TxWx,2013-05-16 08:46:00,
2013-05-16 04:51:00,44.6,45.0,30.32,East,84,0.0,0.0,100,0.00,,,0.00,TxWx,2013-05-16 08:51:00,
2013-05-16 04:56:00,44.5,44.0,30.32,East,84,0.0,0.0,100,0.00,,,0.00,TxWx,2013-05-16 08:56:00,
2013-05-16 05:01:00,44.2,44.0,30.32,East,84,0.0,0.0,100,0.00,,,0.00,TxWx,2013-05-16 09:01:00,
2013-05-16 05:06:00,44.0,44.0,30.32,East,84,0.0,0.0,100,0.00,,,0.00,TxWx,2013-05-16 09:06:00,
2013-05-16 05:11:00,44.2,44.0,30.32,East,84,2.1,2.4,100,0.00,,,0.00,TxWx,2013-05-16 09:11:00,
2013-05-16 05:16:00,44.2,44.0,30.33,East,85,0.9,0.9,100,0.00,,,0.00,TxWx,2013-05-16 09:16:00,
2013-05-16 05:21:00,43.9,44.0,30.32,East,85,0.9,0.9,100,0.00,,,0.00,TxWx,2013-05-16 09:21:00,
2013-05-16 05:26:00,43.9,44.0,30.32,East,83,1.5,1.8,100,0.00,,,0.00,TxWx,2013-05-16 09:26:00,
2013-05-16 05:31:00,43.9,44.0,30.33,East,84,0.0,0.0,100,0.00,,,0.00,TxWx,2013-05-16 09:31:00,
2013-05-16 05:36:00,43.7,44.0,30.32,East,84,0.0,0.0,100,0.00,,,0.00,TxWx,2013-05-16 09:36:00,
2013-05-16 05:41:00,43.5,44.0,30.33,East,85,0.6,0.6,100,0.00,,,0.00,TxWx,2013-05-16 09:41:00,
2013-05-16 05:47:00,43.2,43.0,30.33,East,83,0.6,0.9,100,0.00,,,0.00,TxWx,2013-05-16 09:47:00,
2013-05-16 05:52:00,43.2,43.0,30.33,East,83,0.0,0.0,100,0.00,,,0.00,TxWx,2013-05-16 09:52:00,
2013-05-16 05:57:00,43.1,43.0,30.34,East,82,0.0,0.0,100,0.00,,,0.00,TxWx,2013-05-16 09:57:00,
2013-05-16 06:02:00,43.1,43.0,30.34,East,82,0.0,0.0,100,0.00,,,0.00,TxWx,2013-05-16 10:02:00,
2013-05-16 06:08:00,43.4,43.0,30.34,East,82,0.0,0.0,100,0.00,,,0.00,TxWx,2013-05-16 10:08:00,
2013-05-16 06:13:00,43.7,44.0,30.34,East,83,0.3,0.3,100,0.00,,,0.00,TxWx,2013-05-16 10:13:00,
2013-05-16 06:18:00,44.2,44.0,30.34,East,83,0.3,0.6,100,0.00,,,0.00,TxWx,2013-05-16 10:18:00,
2013-05-16 06:23:00,44.2,44.0,30.34,East,83,1.5,1.5,100,0.00,,,0.00,TxWx,2013-05-16 10:23:00,
2013-05-16 06:28:00,44.8,45.0,30.34,East,83,0.0,0.0,100,0.00,,,0.00,TxWx,2013-05-16 10:28:00,
2013-05-16 06:34:00,45.4,45.0,30.34,East,85,0.6,0.6,100,0.00,,,0.00,TxWx,2013-05-16 10:34:00,
2013-05-16 06:39:00,46.0,46.0,30.34,East,84,0.0,0.6,100,0.00,,,0.00,TxWx,2013-05-16 10:39:00,
2013-05-16 06:44:00,46.8,47.0,30.34,East,83,0.0,0.0,100,0.00,,,0.00,TxWx,2013-05-16 10:44:00,
2013-05-16 06:49:00,46.9,47.0,30.35,East,83,0.3,0.3,100,0.00,,,0.00,TxWx,2013-05-16 10:49:00,
2013-05-16 06:54:00,47.1,47.0,30.35,East,82,0.9,1.2,100,0.00,,,0.00,TxWx,2013-05-16 10:54:00,
2013-05-16 07:00:00,47.6,48.0,30.35,East,84,1.2,1.2,100,0.00,,,0.00,TxWx,2013-05-16 11:00:00,
2013-05-16 07:05:00,47.3,47.0,30.35,East,84,2.1,2.4,100,0.00,,,0.00,TxWx,2013-05-16 11:05:00,
2013-05-16 07:10:00,47.5,47.0,30.35,East,85,0.6,0.6,100,0.00,,,0.00,TxWx,2013-05-16 11:10:00,
2013-05-16 07:15:00,48.0,48.0,30.35,East,85,1.5,1.5,100,0.00,,,0.00,TxWx,2013-05-16 11:15:00,
2013-05-16 07:21:00,48.9,49.0,30.35,East,88,1.8,1.8,100,0.00,,,0.00,TxWx,2013-05-16 11:21:00,
2013-05-16 07:26:00,48.8,49.0,30.35,East,88,3.9,4.2,100,0.00,,,0.00,TxWx,2013-05-16 11:26:00,
2013-05-16 07:31:00,50.3,50.0,30.35,East,88,1.5,1.5,100,0.00,,,0.00,TxWx,2013-05-16 11:31:00,
2013-05-16 07:36:00,51.6,52.0,30.35,East,87,1.2,1.2,100,0.00,,,0.00,TxWx,2013-05-16 11:36:00,
2013-05-16 07:41:00,52.5,53.0,30.36,East,85,0.9,0.9,100,0.00,,,0.00,TxWx,2013-05-16 11:41:00,
2013-05-16 07:47:00,53.3,53.0,30.36,East,85,1.8,2.1,100,0.00,,,0.00,TxWx,2013-05-16 11:47:00,
2013-05-16 07:52:00,54.0,53.0,30.37,East,83,2.1,2.1,97,0.00,,,0.00,TxWx,2013-05-16 11:52:00,
2013-05-16 07:57:00,54.4,52.0,30.37,East,83,0.6,0.9,94,0.00,,,0.00,TxWx,2013-05-16 11:57:00,
2013-05-16 08:02:00,55.3,53.0,30.37,East,82,2.1,2.4,92,0.00,,,0.00,TxWx,2013-05-16 12:02:00,
2013-05-16 08:07:00,56.1,53.0,30.38,East,82,1.5,1.5,89,0.00,,,0.00,TxWx,2013-05-16 12:07:00,
2013-05-16 08:12:00,56.9,53.0,30.38,East,82,1.2,1.2,88,0.00,,,0.00,TxWx,2013-05-16 12:12:00,
2013-05-16 08:17:00,57.6,54.0,30.38,East,81,0.9,0.9,86,0.00,,,0.00,TxWx,2013-05-16 12:17:00,
2013-05-16 08:22:00,58.7,53.0,30.38,East,82,1.2,1.2,81,0.00,,,0.00,TxWx,2013-05-16 12:22:00,
2013-05-16 08:28:00,60.3,53.0,30.39,East,82,1.2,1.2,78,0.00,,,0.00,TxWx,2013-05-16 12:28:00,
2013-05-16 08:33:00,62.5,54.0,30.38,East,82,1.2,1.2,72,0.00,,,0.00,TxWx,2013-05-16 12:33:00,
2013-05-16 08:38:00,63.1,52.0,30.38,East,82,1.8,1.8,68,0.00,,,0.00,TxWx,2013-05-16 12:38:00,
2013-05-16 08:43:00,62.3,51.0,30.38,East,82,3.9,3.9,67,0.00,,,0.00,TxWx,2013-05-16 12:43:00,
2013-05-16 08:48:00,62.2,50.0,30.38,East,82,3.6,3.9,66,0.00,,,0.00,TxWx,2013-05-16 12:48:00,
2013-05-16 08:53:00,62.7,53.0,30.39,East,82,1.5,1.5,69,0.00,,,0.00,TxWx,2013-05-16 12:53:00,
2013-05-16 08:58:00,63.4,51.0,30.39,East,82,2.7,3.6,65,0.00,,,0.00,TxWx,2013-05-16 12:58:00,
2013-05-16 09:04:00,64.0,50.0,30.39,East,83,2.1,2.4,62,0.00,,,0.00,TxWx,2013-05-16 13:04:00,
2013-05-16 09:09:00,64.6,49.0,30.39,East,83,8.4,8.4,56,0.00,,,0.00,TxWx,2013-05-16 13:09:00,
2013-05-16 09:14:00,65.3,48.0,30.39,East,83,7.8,7.8,54,0.00,,,0.00,TxWx,2013-05-16 13:14:00,
2013-05-16 09:19:00,65.7,48.0,30.39,East,83,7.2,7.2,52,0.00,,,0.00,TxWx,2013-05-16 13:19:00,
2013-05-16 09:24:00,66.1,47.0,30.39,East,83,5.7,7.5,51,0.00,,,0.00,TxWx,2013-05-16 13:24:00,
2013-05-16 09:29:00,66.8,48.0,30.39,East,83,3.9,3.9,50,0.00,,,0.00,TxWx,2013-05-16 13:29:00,
2013-05-16 09:34:00,67.7,48.0,30.39,East,83,3.3,3.6,48,0.00,,,0.00,TxWx,2013-05-16 13:34:00,
2013-05-16 09:39:00,68.2,46.0,30.39,East,83,5.4,5.4,46,0.00,,,0.00,TxWx,2013-05-16 13:39:00,
2013-05-16 09:45:00,68.6,46.0,30.39,East,83,4.8,4.8,45,0.00,,,0.00,TxWx,2013-05-16 13:45:00,
2013-05-16 09:50:00,69.8,45.0,30.39,East,82,7.8,7.8,41,0.00,,,0.00,TxWx,2013-05-16 13:50:00,
2013-05-16 09:55:00,70.3,44.0,30.39,East,82,2.7,3.6,39,0.00,,,0.00,TxWx,2013-05-16 13:55:00,
2013-05-16 10:01:00,70.4,43.0,30.40,East,83,7.2,7.8,38,0.00,,,0.00,TxWx,2013-05-16 14:01:00,
2013-05-16 10:06:00,71.1,43.0,30.39,East,83,10.5,10.5,37,0.00,,,0.00,TxWx,2013-05-16 14:06:00,
2013-05-16 10:11:00,71.2,43.0,30.39,East,83,7.5,7.8,37,0.00,,,0.00,TxWx,2013-05-16 14:11:00,
2013-05-16 10:16:00,70.6,42.0,30.39,East,82,11.1,11.1,35,0.00,,,0.00,TxWx,2013-05-16 14:16:00,
2013-05-16 10:22:00,71.1,42.0,30.39,East,83,10.8,14.1,35,0.00,,,0.00,TxWx,2013-05-16 14:22:00,
2013-05-16 10:27:00,71.8,42.0,30.39,East,82,0.9,0.9,35,0.00,,,0.00,TxWx,2013-05-16 14:27:00,
2013-05-16 10:32:00,71.5,40.0,30.39,East,83,7.8,9.3,33,0.00,,,0.00,TxWx,2013-05-16 14:32:00,
2013-05-16 10:38:00,72.2,40.0,30.39,East,82,10.8,10.8,32,0.00,,,0.00,TxWx,2013-05-16 14:38:00,
2013-05-16 10:43:00,72.4,41.0,30.40,East,82,11.4,11.7,33,0.00,,,0.00,TxWx,2013-05-16 14:43:00,
2013-05-16 10:48:00,72.7,42.0,30.39,East,83,8.7,9.3,33,0.00,,,0.00,TxWx,2013-05-16 14:48:00,
2013-05-16 10:53:00,72.3,40.0,30.39,East,83,9.6,9.6,31,0.00,,,0.00,TxWx,2013-05-16 14:53:00,
2013-05-16 10:58:00,72.4,39.0,30.39,East,82,10.2,10.2,31,0.00,,,0.00,TxWx,2013-05-16 14:58:00,
2013-05-16 11:04:00,73.1,40.0,30.39,East,83,6.9,7.8,30,0.00,,,0.00,TxWx,2013-05-16 15:04:00,
2013-05-16 11:09:00,73.3,39.0,30.38,East,83,3.0,3.3,30,0.00,,,0.00,TxWx,2013-05-16 15:09:00,
2013-05-16 11:14:00,74.4,40.0,30.38,East,83,6.0,7.5,30,0.00,,,0.00,TxWx,2013-05-16 15:14:00,
2013-05-16 11:19:00,73.9,40.0,30.38,East,83,6.9,7.8,30,0.00,,,0.00,TxWx,2013-05-16 15:19:00,
2013-05-16 11:24:00,73.9,40.0,30.38,East,83,7.5,7.5,30,0.00,,,0.00,TxWx,2013-05-16 15:24:00,
2013-05-16 11:30:00,74.9,41.0,30.38,East,83,4.5,4.5,30,0.00,,,0.00,TxWx,2013-05-16 15:30:00,
2013-05-16 11:35:00,74.2,39.0,30.38,East,83,6.0,6.0,29,0.00,,,0.00,TxWx,2013-05-16 15:35:00,
2013-05-16 11:40:00,75.0,40.0,30.38,East,82,8.7,8.7,28,0.00,,,0.00,TxWx,2013-05-16 15:40:00,
2013-05-16 11:45:00,74.9,39.0,30.37,East,85,9.6,9.6,28,0.00,,,0.00,TxWx,2013-05-16 15:45:00,
2013-05-16 11:50:00,74.8,39.0,30.37,East,83,10.5,10.8,27,0.00,,,0.00,TxWx,2013-05-16 15:50:00,
2013-05-16 11:56:00,74.4,38.0,30.37,East,83,5.1,5.4,28,0.00,,,0.00,TxWx,2013-05-16 15:56:00,
2013-05-16 12:01:00,75.1,41.0,30.36,East,82,9.6,9.6,29,0.00,,,0.00,TxWx,2013-05-16 16:01:00,
2013-05-16 12:06:00,75.1,40.0,30.36,East,82,4.2,4.5,28,0.00,,,0.00,TxWx,2013-05-16 16:06:00,
2013-05-16 12:11:00,75.3,40.0,30.35,East,82,7.8,8.1,28,0.00,,,0.00,TxWx,2013-05-16 16:11:00,
2013-05-16 12:16:00,75.9,40.0,30.35,East,83,12.6,12.6,28,0.00,,,0.00,TxWx,2013-05-16 16:16:00,
2013-05-16 12:21:00,75.3,38.0,30.35,East,85,10.5,10.8,26,0.00,,,0.00,TxWx,2013-05-16 16:21:00,
2013-05-16 12:26:00,76.4,39.0,30.35,East,82,11.1,11.1,27,0.00,,,0.00,TxWx,2013-05-16 16:26:00,
2013-05-16 12:32:00,76.2,39.0,30.35,East,83,4.2,4.2,26,0.00,,,0.00,TxWx,2013-05-16 16:32:00,
2013-05-16 12:37:00,76.1,39.0,30.35,East,83,11.1,12.6,26,0.00,,,0.00,TxWx,2013-05-16 16:37:00,
2013-05-16 12:42:00,76.2,38.0,30.35,East,83,9.0,10.8,26,0.00,,,0.00,TxWx,2013-05-16 16:42:00,
2013-05-16 12:47:00,76.7,40.0,30.35,East,86,2.7,3.0,27,0.00,,,0.00,TxWx,2013-05-16 16:47:00,
2013-05-16 12:52:00,77.0,39.0,30.34,East,82,2.4,2.4,26,0.00,,,0.00,TxWx,2013-05-16 16:52:00,
2013-05-16 12:57:00,77.9,41.0,30.34,East,82,4.2,5.1,27,0.00,,,0.00,TxWx,2013-05-16 16:57:00,
2013-05-16 13:03:00,77.9,39.0,30.34,East,83,4.5,4.5,25,0.00,,,0.00,TxWx,2013-05-16 17:03:00,
2013-05-16 13:08:00,78.0,39.0,30.33,East,83,1.2,1.5,25,0.00,,,0.00,TxWx,2013-05-16 17:08:00,
2013-05-16 13:13:00,78.3,40.0,30.33,East,82,5.7,6.0,26,0.00,,,0.00,TxWx,2013-05-16 17:13:00,
2013-05-16 13:18:00,77.6,38.0,30.33,East,86,10.5,10.5,24,0.00,,,0.00,TxWx,2013-05-16 17:18:00,
2013-05-16 13:23:00,79.0,40.0,30.33,East,83,6.9,6.9,25,0.00,,,0.00,TxWx,2013-05-16 17:23:00,
2013-05-16 13:28:00,78.3,37.0,30.33,East,84,10.5,10.8,23,0.00,,,0.00,TxWx,2013-05-16 17:28:00,
2013-05-16 13:34:00,78.5,38.0,30.33,East,84,8.1,10.2,24,0.00,,,0.00,TxWx,2013-05-16 17:34:00,
2013-05-16 13:39:00,78.3,38.0,30.33,East,85,11.1,11.1,24,0.00,,,0.00,TxWx,2013-05-16 17:39:00,
2013-05-16 13:44:00,78.4,39.0,30.33,East,83,10.8,12.3,25,0.00,,,0.00,TxWx,2013-05-16 17:44:00,
2013-05-16 13:50:00,76.8,44.0,30.33,East,82,14.4,14.4,31,0.00,,,0.00,TxWx,2013-05-16 17:50:00,
2013-05-16 13:55:00,75.7,46.0,30.33,East,82,7.2,8.4,35,0.00,,,0.00,TxWx,2013-05-16 17:55:00,
2013-05-16 14:00:00,75.4,45.0,30.33,East,84,19.8,20.1,34,0.00,,,0.00,TxWx,2013-05-16 18:00:00,
2013-05-16 14:05:00,74.8,46.0,30.33,East,82,15.0,16.8,36,0.00,,,0.00,TxWx,2013-05-16 18:05:00,
2013-05-16 14:10:00,74.9,46.0,30.33,East,82,6.9,7.5,36,0.00,,,0.00,TxWx,2013-05-16 18:10:00,
2013-05-16 14:15:00,75.2,45.0,30.33,East,82,12.3,15.0,34,0.00,,,0.00,TxWx,2013-05-16 18:15:00,
2013-05-16 14:21:00,74.9,45.0,30.33,East,83,13.8,15.6,35,0.00,,,0.00,TxWx,2013-05-16 18:21:00,
2013-05-16 14:26:00,76.5,48.0,30.32,East,83,7.5,7.5,37,0.00,,,0.00,TxWx,2013-05-16 18:26:00,
2013-05-16 14:31:00,76.6,47.0,30.33,East,84,8.1,8.1,35,0.00,,,0.00,TxWx,2013-05-16 18:31:00,
2013-05-16 14:36:00,74.7,44.0,30.32,East,82,10.8,11.7,34,0.00,,,0.00,TxWx,2013-05-16 18:36:00,
2013-05-16 14:42:00,74.5,44.0,30.32,East,83,15.3,19.8,34,0.00,,,0.00,TxWx,2013-05-16 18:42:00,
2013-05-16 14:47:00,75.9,46.0,30.32,East,83,9.3,9.3,35,0.00,,,0.00,TxWx,2013-05-16 18:47:00,
2013-05-16 14:52:00,75.0,45.0,30.32,East,83,11.7,12.9,35,0.00,,,0.00,TxWx,2013-05-16 18:52:00,
2013-05-16 14:57:00,75.2,44.0,30.32,East,83,12.6,14.1,33,0.00,,,0.00,TxWx,2013-05-16 18:57:00,
2013-05-16 15:02:00,75.0,44.0,30.32,East,84,11.7,14.1,33,0.00,,,0.00,TxWx,2013-05-16 19:02:00,
2013-05-16 15:08:00,74.4,43.0,30.32,East,83,19.8,19.8,33,0.00,,,0.00,TxWx,2013-05-16 19:08:00,
2013-05-16 15:13:00,74.8,44.0,30.31,East,83,16.8,16.8,34,0.00,,,0.00,TxWx,2013-05-16 19:13:00,
2013-05-16 15:18:00,75.0,44.0,30.31,East,83,13.2,15.3,33,0.00,,,0.00,TxWx,2013-05-16 19:18:00,
2013-05-16 15:23:00,76.0,45.0,30.31,East,84,6.0,6.3,34,0.00,,,0.00,TxWx,2013-05-16 19:23:00,
2013-05-16 15:28:00,75.6,44.0,30.31,East,83,9.6,9.6,32,0.00,,,0.00,TxWx,2013-05-16 19:28:00,
2013-05-16 15:34:00,76.1,43.0,30.31,East,85,6.0,7.2,31,0.00,,,0.00,TxWx,2013-05-16 19:34:00,
2013-05-16 15:39:00,75.8,44.0,30.31,East,84,7.8,10.2,32,0.00,,,0.00,TxWx,2013-05-16 19:39:00,
2013-05-16 15:44:00,76.1,43.0,30.31,East,84,12.3,12.6,31,0.00,,,0.00,TxWx,2013-05-16 19:44:00,
2013-05-16 15:49:00,75.5,43.0,30.31,East,84,13.5,14.4,31,0.00,,,0.00,TxWx,2013-05-16 19:49:00,
2013-05-16 15:55:00,75.7,43.0,30.31,East,84,6.6,7.2,31,0.00,,,0.00,TxWx,2013-05-16 19:55:00,
2013-05-16 16:00:00,76.3,44.0,30.31,East,84,6.9,6.9,32,0.00,,,0.00,TxWx,2013-05-16 20:00:00,
2013-05-16 16:03:00,58.7,48.0,30.43,East,92,0.0,0.0,67,0.00,,,0.00,TxWx,2013-05-16 20:03:00,
2013-05-16 16:04:00,58.8,48.0,30.43,East,82,1.2,1.5,67,0.00,,,0.00,TxWx,2013-05-16 20:04:00,
2013-05-16 16:05:00,76.5,44.0,30.31,East,84,14.1,16.2,32,0.00,,,0.00,TxWx,2013-05-16 20:05:00,
2013-05-16 16:06:00,58.8,48.0,30.43,East,82,0.6,0.9,67,0.00,,,0.00,TxWx,2013-05-16 20:06:00,
2013-05-16 16:07:00,58.8,48.0,30.43,East,83,0.0,0.0,67,0.00,,,0.00,TxWx,2013-05-16 20:07:00,
2013-05-16 16:08:00,58.1,47.0,30.43,East,86,1.5,1.5,67,0.00,,,0.00,TxWx,2013-05-16 20:08:00,
2013-05-16 16:09:00,57.8,47.0,30.43,East,86,1.2,1.5,67,0.00,,,0.00,TxWx,2013-05-16 20:09:00,
2013-05-16 16:10:00,76.5,44.0,30.30,East,85,12.3,12.3,32,0.00,,,0.00,TxWx,2013-05-16 20:10:00,
2013-05-16 16:11:00,57.3,47.0,30.43,East,86,1.8,2.1,68,0.00,,,0.00,TxWx,2013-05-16 20:11:00,
2013-05-16 16:12:00,57.2,47.0,30.43,East,86,2.1,2.1,69,0.00,,,0.00,TxWx,2013-05-16 20:12:00,
2013-05-16 16:13:00,57.2,47.0,30.43,East,86,2.1,2.4,69,0.00,,,0.00,TxWx,2013-05-16 20:13:00,
2013-05-16 16:14:00,57.0,47.0,30.43,East,86,2.7,2.7,70,0.00,,,0.00,TxWx,2013-05-16 20:14:00,
2013-05-16 16:15:00,76.7,44.0,30.31,East,86,14.4,15.3,31,0.00,,,0.00,TxWx,2013-05-16 20:15:00,
2013-05-16 16:16:00,56.8,47.0,30.43,East,87,2.4,2.7,70,0.00,,,0.00,TxWx,2013-05-16 20:16:00,
2013-05-16 16:17:00,56.6,47.0,30.43,East,85,2.1,2.4,70,0.00,,,0.00,TxWx,2013-05-16 20:17:00,
2013-05-16 16:18:00,56.5,47.0,30.44,East,86,2.1,2.4,71,0.00,,,0.00,TxWx,2013-05-16 20:18:00,
2013-05-16 16:19:00,56.5,48.0,30.44,East,86,1.5,1.8,71,0.00,,,0.00,TxWx,2013-05-16 20:19:00,
2013-05-16 16:20:00,56.5,48.0,30.44,East,86,1.5,1.8,71,0.00,,,0.00,TxWx,2013-05-16 20:20:00,
2013-05-16 16:21:00,76.5,44.0,30.30,East,84,16.8,17.1,31,0.00,,,0.00,TxWx,2013-05-16 20:21:00,
2013-05-16 16:22:00,56.5,47.0,30.44,East,86,1.5,1.5,72,0.00,,,0.00,TxWx,2013-05-16 20:22:00,
2013-05-16 16:23:00,56.5,47.0,30.44,East,86,1.5,1.5,72,0.00,,,0.00,TxWx,2013-05-16 20:23:00,
2013-05-16 16:24:00,56.4,47.0,30.44,East,86,1.2,1.5,72,0.00,,,0.00,TxWx,2013-05-16 20:24:00,
2013-05-16 16:25:00,56.4,47.0,30.44,East,86,1.2,1.2,73,0.00,,,0.00,TxWx,2013-05-16 20:25:00,
2013-05-16 16:26:00,76.8,44.0,30.30,East,85,11.7,15.0,31,0.00,,,0.00,TxWx,2013-05-16 20:26:00,
2013-05-16 16:27:00,56.5,47.0,30.44,East,86,0.0,0.0,73,0.00,,,0.00,TxWx,2013-05-16 20:27:00,
2013-05-16 16:28:00,56.5,47.0,30.44,East,85,0.6,0.9,73,0.00,,,0.00,TxWx,2013-05-16 20:28:00,
2013-05-16 16:29:00,56.5,47.0,30.44,East,85,0.6,0.6,73,0.00,,,0.00,TxWx,2013-05-16 20:29:00,
2013-05-16 16:30:00,56.5,47.0,30.44,East,84,0.6,0.9,73,0.00,,,0.00,TxWx,2013-05-16 20:30:00,
2013-05-16 16:31:00,76.7,43.0,30.30,East,85,13.2,13.2,30,0.00,,,0.00,TxWx,2013-05-16 20:31:00,
2013-05-16 16:32:00,56.5,47.0,30.44,East,86,0.3,0.3,73,0.00,,,0.00,TxWx,2013-05-16 20:32:00,
2013-05-16 16:33:00,56.5,47.0,30.44,East,85,0.3,0.3,73,0.00,,,0.00,TxWx,2013-05-16 20:33:00,
2013-05-16 16:34:00,56.4,47.0,30.44,East,86,0.6,0.6,73,0.00,,,0.00,TxWx,2013-05-16 20:34:00,
2013-05-16 16:35:00,56.5,47.0,30.44,East,84,0.9,0.9,73,0.00,,,0.00,TxWx,2013-05-16 20:35:00,
2013-05-16 16:36:00,76.6,42.0,30.30,East,85,17.7,18.6,29,0.00,,,0.00,TxWx,2013-05-16 20:36:00,
2013-05-16 16:37:00,56.5,48.0,30.44,East,84,0.9,1.2,74,0.00,,,0.00,TxWx,2013-05-16 20:37:00,
2013-05-16 16:38:00,56.4,48.0,30.44,East,86,0.9,0.9,74,0.00,,,0.00,TxWx,2013-05-16 20:38:00,
2013-05-16 16:39:00,56.3,48.0,30.44,East,86,0.6,0.6,74,0.00,,,0.00,TxWx,2013-05-16 20:39:00,
2013-05-16 16:40:00,56.2,48.0,30.44,East,84,0.3,0.6,74,0.00,,,0.00,TxWx,2013-05-16 20:40:00,
2013-05-16 16:41:00,77.1,43.0,30.30,East,86,10.2,10.2,30,0.00,,,0.00,TxWx,2013-05-16 20:41:00,
2013-05-16 16:42:00,56.1,48.0,30.44,East,85,1.2,1.5,74,0.00,,,0.00,TxWx,2013-05-16 20:42:00,
2013-05-16 16:46:00,77.2,42.0,30.30,East,86,12.3,12.3,29,0.00,,,0.00,TxWx,2013-05-16 20:46:00,
2013-05-16 16:47:00,55.8,48.0,30.45,East,86,0.9,0.9,75,0.00,,,0.00,TxWx,2013-05-16 20:47:00,
2013-05-16 16:48:00,55.7,48.0,30.45,East,86,0.3,0.3,75,0.00,,,0.00,TxWx,2013-05-16 20:48:00,
2013-05-16 16:52:00,76.9,43.0,30.30,East,85,8.4,8.4,30,0.00,,,0.00,TxWx,2013-05-16 20:52:00,
2013-05-16 16:57:00,76.9,42.0,30.30,East,86,18.3,18.3,29,0.00,,,0.00,TxWx,2013-05-16 20:57:00,
2013-05-16 17:02:00,77.0,42.0,30.30,East,86,10.5,12.9,29,0.00,,,0.00,TxWx,2013-05-16 21:02:00,
2013-05-16 17:07:00,76.8,43.0,30.30,East,87,16.2,17.4,30,0.00,,,0.00,TxWx,2013-05-16 21:07:00,
2013-05-16 17:12:00,76.1,43.0,30.31,East,86,23.1,23.1,31,0.00,,,0.00,TxWx,2013-05-16 21:12:00,
2013-05-16 17:17:00,75.3,44.0,30.31,East,86,16.8,16.8,34,0.00,,,0.00,TxWx,2013-05-16 21:17:00,
2013-05-16 17:23:00,74.8,45.0,30.31,East,86,22.2,22.5,35,0.00,,,0.00,TxWx,2013-05-16 21:23:00,
2013-05-16 17:28:00,74.7,46.0,30.31,East,85,14.4,17.4,36,0.00,,,0.00,TxWx,2013-05-16 21:28:00,
2013-05-16 17:33:00,74.7,47.0,30.31,East,86,18.9,19.2,37,0.00,,,0.00,TxWx,2013-05-16 21:33:00,
2013-05-16 17:38:00,74.3,46.0,30.31,East,86,13.5,15.6,37,0.00,,,0.00,TxWx,2013-05-16 21:38:00,
2013-05-16 17:43:00,74.5,47.0,30.31,East,86,8.1,9.3,38,0.00,,,0.00,TxWx,2013-05-16 21:43:00,
2013-05-16 17:48:00,74.4,47.0,30.32,East,87,18.0,18.0,39,0.00,,,0.00,TxWx,2013-05-16 21:48:00,
2013-05-16 17:54:00,73.6,47.0,30.31,East,86,10.5,10.5,39,0.00,,,0.00,TxWx,2013-05-16 21:54:00,
2013-05-16 17:59:00,73.4,47.0,30.31,East,86,15.3,15.3,39,0.00,,,0.00,TxWx,2013-05-16 21:59:00,
2013-05-16 18:04:00,73.5,47.0,30.32,East,87,12.3,12.9,39,0.00,,,0.00,TxWx,2013-05-16 22:04:00,
2013-05-16 18:09:00,73.1,46.0,30.32,East,88,23.7,23.7,38,0.00,,,0.00,TxWx,2013-05-16 22:09:00,
2013-05-16 18:15:00,72.7,46.0,30.32,East,86,15.3,15.6,39,0.00,,,0.00,TxWx,2013-05-16 22:15:00,
2013-05-16 18:20:00,72.7,47.0,30.32,East,87,15.9,16.5,39,0.00,,,0.00,TxWx,2013-05-16 22:20:00,
2013-05-16 18:25:00,72.5,46.0,30.32,East,87,21.0,26.1,39,0.00,,,0.00,TxWx,2013-05-16 22:25:00,
2013-05-16 18:30:00,72.4,46.0,30.32,East,86,9.9,9.9,40,0.00,,,0.00,TxWx,2013-05-16 22:30:00,
2013-05-16 18:35:00,72.4,46.0,30.32,East,87,12.6,12.6,40,0.00,,,0.00,TxWx,2013-05-16 22:35:00,
2013-05-16 18:40:00,72.1,46.0,30.32,East,87,5.1,6.3,40,0.00,,,0.00,TxWx,2013-05-16 22:40:00,
2013-05-16 18:45:00,72.2,46.0,30.33,East,88,11.1,11.4,40,0.00,,,0.00,TxWx,2013-05-16 22:45:00,
2013-05-16 18:51:00,72.3,46.0,30.32,East,89,9.6,10.5,40,0.00,,,0.00,TxWx,2013-05-16 22:51:00,
2013-05-16 18:56:00,72.1,46.0,30.33,East,89,9.0,11.4,40,0.00,,,0.00,TxWx,2013-05-16 22:56:00,
2013-05-16 19:01:00,72.0,46.0,30.33,East,88,8.1,8.1,40,0.00,,,0.00,TxWx,2013-05-16 23:01:00,
2013-05-16 19:06:00,71.9,47.0,30.33,East,88,10.8,10.8,41,0.00,,,0.00,TxWx,2013-05-16 23:06:00,
2013-05-16 19:11:00,71.8,47.0,30.33,East,87,16.2,16.5,41,0.00,,,0.00,TxWx,2013-05-16 23:11:00,
2013-05-16 19:17:00,71.4,46.0,30.33,East,88,12.3,12.3,41,0.00,,,0.00,TxWx,2013-05-16 23:17:00,
2013-05-16 19:22:00,71.2,47.0,30.34,East,88,4.5,5.7,42,0.00,,,0.00,TxWx,2013-05-16 23:22:00,
2013-05-16 19:27:00,71.0,47.0,30.34,East,87,7.5,7.5,43,0.00,,,0.00,TxWx,2013-05-16 23:27:00,
2013-05-16 19:32:00,70.7,48.0,30.34,East,87,8.1,8.1,44,0.00,,,0.00,TxWx,2013-05-16 23:32:00,
2013-05-16 19:37:00,70.4,47.0,30.34,East,88,9.6,10.2,44,0.00,,,0.00,TxWx,2013-05-16 23:37:00,
2013-05-16 19:42:00,69.9,48.0,30.35,East,90,7.8,7.8,46,0.00,,,0.00,TxWx,2013-05-16 23:42:00,
2013-05-16 19:48:00,69.5,48.0,30.35,East,87,6.9,8.4,47,0.00,,,0.00,TxWx,2013-05-16 23:48:00,
2013-05-16 19:53:00,69.3,48.0,30.35,East,87,9.0,11.1,48,0.00,,,0.00,TxWx,2013-05-16 23:53:00,
2013-05-16 19:58:00,68.9,49.0,30.36,East,87,9.3,11.1,50,0.00,,,0.00,TxWx,2013-05-16 23:58:00,
2013-05-16 20:03:00,68.5,50.0,30.36,East,88,13.8,13.8,52,0.00,,,0.00,TxWx,2013-05-17 00:03:00,
2013-05-16 20:08:00,68.2,50.0,30.36,East,89,14.4,14.4,53,0.00,,,0.00,TxWx,2013-05-17 00:08:00,
2013-05-16 20:13:00,67.9,50.0,30.36,East,89,6.9,6.9,54,0.00,,,0.00,TxWx,2013-05-17 00:13:00,
2013-05-16 20:18:00,67.7,50.0,30.36,East,86,10.8,12.3,54,0.00,,,0.00,TxWx,2013-05-17 00:18:00,
2013-05-16 20:24:00,67.4,50.0,30.36,East,89,9.3,9.3,54,0.00,,,0.00,TxWx,2013-05-17 00:24:00,
2013-05-16 20:29:00,67.1,50.0,30.37,East,89,8.4,8.4,54,0.00,,,0.00,TxWx,2013-05-17 00:29:00,
2013-05-16 20:34:00,67.0,50.0,30.37,East,88,11.4,12.6,55,0.00,,,0.00,TxWx,2013-05-17 00:34:00,
2013-05-16 20:39:00,66.6,50.0,30.37,East,90,11.1,12.3,55,0.00,,,0.00,TxWx,2013-05-17 00:39:00,
2013-05-16 20:44:00,66.3,50.0,30.37,East,86,2.1,2.1,56,0.00,,,0.00,TxWx,2013-05-17 00:44:00,
2013-05-16 20:49:00,66.2,49.0,30.37,East,89,4.8,6.3,55,0.00,,,0.00,TxWx,2013-05-17 00:49:00,
2013-05-16 20:54:00,66.1,49.0,30.38,East,88,3.3,3.3,55,0.00,,,0.00,TxWx,2013-05-17 00:54:00,
2013-05-16 21:00:00,65.9,49.0,30.38,East,89,5.4,5.4,55,0.00,,,0.00,TxWx,2013-05-17 01:00:00,
2013-05-16 21:05:00,65.7,49.0,30.38,East,89,4.5,6.0,55,0.00,,,0.00,TxWx,2013-05-17 01:05:00,
2013-05-16 21:10:00,65.7,49.0,30.38,East,90,2.7,3.6,54,0.00,,,0.00,TxWx,2013-05-17 01:10:00,
2013-05-16 21:15:00,65.5,49.0,30.38,East,86,1.2,1.2,54,0.00,,,0.00,TxWx,2013-05-17 01:15:00,
2013-05-16 21:20:00,65.3,47.0,30.39,East,89,12.0,12.0,53,0.00,,,0.00,TxWx,2013-05-17 01:20:00,
2013-05-16 21:26:00,65.3,47.0,30.39,East,87,7.5,7.8,53,0.00,,,0.00,TxWx,2013-05-17 01:26:00,
2013-05-16 21:31:00,65.2,47.0,30.39,East,90,10.2,10.2,52,0.00,,,0.00,TxWx,2013-05-17 01:31:00,
2013-05-16 21:36:00,65.2,47.0,30.39,East,89,5.1,5.4,52,0.00,,,0.00,TxWx,2013-05-17 01:36:00,
2013-05-16 21:41:00,65.1,47.0,30.39,East,88,9.0,9.0,52,0.00,,,0.00,TxWx,2013-05-17 01:41:00,
2013-05-16 21:46:00,64.9,46.0,30.40,East,88,6.0,6.6,51,0.00,,,0.00,TxWx,2013-05-17 01:46:00,
2013-05-16 21:51:00,65.0,46.0,30.39,East,90,5.1,5.4,51,0.00,,,0.00,TxWx,2013-05-17 01:51:00,
2013-05-16 21:57:00,65.0,46.0,30.40,East,89,3.6,3.6,50,0.00,,,0.00,TxWx,2013-05-17 01:57:00,
2013-05-16 22:02:00,64.9,46.0,30.40,East,89,4.8,5.7,50,0.00,,,0.00,TxWx,2013-05-17 02:02:00,
2013-05-16 22:07:00,64.9,46.0,30.40,East,89,7.5,8.7,50,0.00,,,0.00,TxWx,2013-05-17 02:07:00,
2013-05-16 22:12:00,64.8,45.0,30.40,East,89,5.4,6.3,49,0.00,,,0.00,TxWx,2013-05-17 02:12:00,
2013-05-16 22:17:00,64.4,44.0,30.40,East,92,6.3,8.1,49,0.00,,,0.00,TxWx,2013-05-17 02:17:00,
2013-05-16 22:23:00,64.5,46.0,30.41,East,91,3.0,3.6,50,0.00,,,0.00,TxWx,2013-05-17 02:23:00,
2013-05-16 22:28:00,64.5,45.0,30.42,East,91,6.6,6.9,49,0.00,,,0.00,TxWx,2013-05-17 02:28:00,
2013-05-16 22:33:00,64.3,45.0,30.42,East,95,3.9,4.2,50,0.00,,,0.00,TxWx,2013-05-17 02:33:00,
2013-05-16 22:39:00,64.2,45.0,30.42,East,92,7.8,8.4,50,0.00,,,0.00,TxWx,2013-05-17 02:39:00,
2013-05-16 22:44:00,64.2,45.0,30.42,East,92,0.9,0.9,51,0.00,,,0.00,TxWx,2013-05-17 02:44:00,
2013-05-16 22:49:00,63.8,46.0,30.42,East,91,3.3,3.3,52,0.00,,,0.00,TxWx,2013-05-17 02:49:00,
2013-05-16 22:54:00,63.7,46.0,30.43,East,88,0.9,0.9,53,0.00,,,0.00,TxWx,2013-05-17 02:54:00,
2013-05-16 22:59:00,63.2,46.0,30.43,East,84,0.9,0.9,53,0.00,,,0.00,TxWx,2013-05-17 02:59:00,
2013-05-16 23:04:00,62.9,46.0,30.42,East,84,0.0,0.0,54,0.00,,,0.00,TxWx,2013-05-17 03:04:00,
2013-05-16 23:09:00,62.4,46.0,30.42,East,92,0.0,0.3,55,0.00,,,0.00,TxWx,2013-05-17 03:09:00,
2013-05-16 23:15:00,62.4,46.0,30.43,East,93,0.6,0.6,57,0.00,,,0.00,TxWx,2013-05-17 03:15:00,
2013-05-16 23:20:00,61.9,47.0,30.43,East,92,0.0,0.0,57,0.00,,,0.00,TxWx,2013-05-17 03:20:00,
2013-05-16 23:25:00,61.4,46.0,30.43,East,91,0.0,0.0,59,0.00,,,0.00,TxWx,2013-05-17 03:25:00,
2013-05-16 23:30:00,61.0,47.0,30.43,East,89,1.2,1.2,60,0.00,,,0.00,TxWx,2013-05-17 03:30:00,
2013-05-16 23:35:00,60.2,46.0,30.43,East,89,0.0,0.0,61,0.00,,,0.00,TxWx,2013-05-17 03:35:00,
2013-05-16 23:40:00,59.5,47.0,30.43,East,88,0.0,0.0,63,0.00,,,0.00,TxWx,2013-05-17 03:40:00,
2013-05-16 23:45:00,59.1,47.0,30.43,East,86,0.0,0.0,64,0.00,,,0.00,TxWx,2013-05-17 03:45:00,
2013-05-16 23:51:00,58.8,47.0,30.43,East,95,0.0,0.0,65,0.00,,,0.00,TxWx,2013-05-17 03:51:00,
2013-05-16 23:56:00,58.8,48.0,30.43,East,93,1.2,1.2,67,0.00,,,0.00,TxWx,2013-05-17 03:56:00,